SCSZ weather

Puerto Sanchéz Airport
Puerto Sanchez, Aysén Region, Chile

Public forecast

Using degrees Celsius for public forecast. Weather courtesy of forecast.io.

METAR (pilot weather report)

Report is more than 6 hours old.

Closest report is Chile Chico Airport, 38.4 nm (71.0 km) E. Retrieved 2019/05/20 21:00 UTC (10 hours ago):

SCCC 202100Z 18004KT CAVOK 07/M02 Q1025

TAF (pilot weather forecast)

Closest forecast is Balmaceda Airport, 56.3 nm (104.2 km) NE. Retrieved 2019/05/21 06:00 UTC (55 minutes ago):

TAF SCBA 210430Z 2106/2206 30008KT CAVOK TNM06/2111Z TX06/2018Z PROB30 TEMPO 2109/2112 9999 BKN035 BECMG 2113/2115 30013KT SCT035 BECMG 2117/2119 CAVOK BECMG 2204/2206 9999 SCT035